createdAt,value
2019-06-07T00:01:20.768Z,100.00
2019-06-07T00:03:49.208Z,100.00
2019-06-07T00:06:24.388Z,100.00
2019-06-07T00:08:48.176Z,100.00
2019-06-07T00:11:20.013Z,100.00
2019-06-07T00:13:47.030Z,100.00
2019-06-07T00:16:20.879Z,100.00
2019-06-07T00:18:45.996Z,100.00
2019-06-07T00:21:17.021Z,100.00
2019-06-07T00:23:44.904Z,100.00
2019-06-07T00:26:17.339Z,100.00
2019-06-07T00:28:43.912Z,100.00
2019-06-07T00:31:14.940Z,100.00
2019-06-07T00:33:42.761Z,100.00
2019-06-07T00:36:14.571Z,100.00
2019-06-07T00:38:41.722Z,100.00
2019-06-07T00:41:10.358Z,100.00
2019-06-07T00:43:39.027Z,100.00
2019-06-07T00:46:07.584Z,100.00
2019-06-07T00:48:36.226Z,100.00
2019-06-07T00:51:04.898Z,100.00
2019-06-07T00:53:33.633Z,100.00
2019-06-07T00:56:02.277Z,100.00
2019-06-07T00:58:30.921Z,100.00
2019-06-07T01:00:59.571Z,100.00
2019-06-07T01:03:28.262Z,100.00
2019-06-07T01:05:56.896Z,100.00
2019-06-07T01:08:29.975Z,100.00
2019-06-07T01:10:55.888Z,100.00
2019-06-07T01:13:26.773Z,100.00
2019-06-07T01:15:54.836Z,100.00
2019-06-07T01:18:37.842Z,100.00
2019-06-07T01:20:53.871Z,100.00
2019-06-07T01:24:03.368Z,100.00
2019-06-07T01:25:52.787Z,100.00
2019-06-07T01:28:26.336Z,100.00
2019-06-07T01:30:52.548Z,100.00
2019-06-07T01:33:23.484Z,100.00
2019-06-07T01:35:51.653Z,100.00
2019-06-07T01:38:21.929Z,100.00
2019-06-07T01:40:50.534Z,100.00
2019-06-07T01:43:20.180Z,100.00
2019-06-07T01:45:49.511Z,100.00
2019-06-07T01:48:21.625Z,100.00
2019-06-07T01:50:48.474Z,100.00
2019-06-07T01:53:20.768Z,100.00
2019-06-07T01:55:47.367Z,100.00
2019-06-07T01:58:17.031Z,100.00
2019-06-07T02:00:46.630Z,100.00
2019-06-07T02:03:15.274Z,100.00
2019-06-07T02:05:43.843Z,100.00
2019-06-07T02:08:12.447Z,100.00
2019-06-07T02:10:41.025Z,100.00
2019-06-07T02:13:09.655Z,100.00
2019-06-07T02:15:38.194Z,100.00
2019-06-07T02:18:06.943Z,100.00
2019-06-07T02:20:35.526Z,100.00
2019-06-07T02:23:04.179Z,100.00
2019-06-07T02:25:43.827Z,100.00
2019-06-07T02:28:26.788Z,100.00
2019-06-07T02:30:46.031Z,100.00
2019-06-07T02:33:03.885Z,100.00
2019-06-07T02:35:39.027Z,100.00
2019-06-07T02:38:02.801Z,100.00
2019-06-07T02:40:36.395Z,100.00
2019-06-07T02:43:01.758Z,100.00
2019-06-07T02:45:42.037Z,100.00
2019-06-07T02:48:00.711Z,100.00
2019-06-07T02:50:35.361Z,100.00
2019-06-07T02:52:59.618Z,100.00
2019-06-07T02:55:33.213Z,100.00
2019-06-07T02:57:58.605Z,100.00
2019-06-07T03:01:07.569Z,100.00
2019-06-07T03:03:16.719Z,100.00
2019-06-07T03:05:46.378Z,100.00
2019-06-07T03:08:16.430Z,100.00
2019-06-07T03:10:49.765Z,100.00
2019-06-07T03:13:20.396Z,100.00
2019-06-07T03:15:55.901Z,100.00
2019-06-07T03:18:42.372Z,100.00
2019-06-07T03:21:12.676Z,100.00
2019-06-07T03:23:41.361Z,100.00
2019-06-07T03:26:10.010Z,100.00
2019-06-07T03:28:39.626Z,100.00
2019-06-07T03:31:08.325Z,100.00
2019-06-07T03:33:42.757Z,98.60
2019-06-07T03:36:23.511Z,94.06
2019-06-07T03:38:39.647Z,89.82
2019-06-07T03:41:07.829Z,86.52
2019-06-07T03:43:40.402Z,84.25
2019-06-07T03:46:06.789Z,79.47
2019-06-07T03:48:36.429Z,77.47
2019-06-07T03:51:23.607Z,74.14
2019-06-07T03:53:37.336Z,71.81
2019-06-07T03:56:06.622Z,69.85
2019-06-07T03:58:47.973Z,67.15
2019-06-07T04:01:05.539Z,67.16
2019-06-07T04:03:43.542Z,64.82
2019-06-07T04:06:04.495Z,61.13
2019-06-07T04:08:34.422Z,61.13
2019-06-07T04:11:03.344Z,58.41
2019-06-07T04:13:35.347Z,57.80
2019-06-07T04:16:04.011Z,57.82
2019-06-07T04:18:33.061Z,58.55
2019-06-07T04:21:02.321Z,58.64
2019-06-07T04:23:33.139Z,57.56
2019-06-07T04:26:01.166Z,57.48
2019-06-07T04:29:25.059Z,56.17
2019-06-07T04:31:00.556Z,54.71
2019-06-07T04:33:31.082Z,55.12
2019-06-07T04:36:00.050Z,53.52
2019-06-07T04:38:31.970Z,52.96
2019-06-07T04:41:01.036Z,50.53
2019-06-07T04:43:31.594Z,48.75
2019-06-07T04:46:02.623Z,48.85
2019-06-07T04:48:35.181Z,47.98
2019-06-07T04:51:04.859Z,47.66
2019-06-07T04:53:35.244Z,46.81
2019-06-07T04:56:03.984Z,47.03
2019-06-07T04:58:33.366Z,46.48
2019-06-07T05:01:03.753Z,47.36
2019-06-07T05:03:36.090Z,45.48
2019-06-07T05:06:02.875Z,45.40
2019-06-07T05:08:33.361Z,46.25
2019-06-07T05:11:01.820Z,47.12
2019-06-07T05:13:35.024Z,46.07
2019-06-07T05:16:00.795Z,44.38
2019-06-07T05:18:29.664Z,44.86
2019-06-07T05:20:59.229Z,43.62
2019-06-07T05:24:02.582Z,42.37
2019-06-07T05:25:58.457Z,42.75
2019-06-07T05:28:27.130Z,44.26
2019-06-07T05:31:04.575Z,44.04
2019-06-07T05:33:26.038Z,43.25
2019-06-07T05:35:54.698Z,41.15
2019-06-07T05:38:23.336Z,40.35
2019-06-07T05:40:51.971Z,42.62
2019-06-07T05:43:29.392Z,42.17
2019-06-07T05:45:57.960Z,42.73
2019-06-07T05:48:26.872Z,41.41
2019-06-07T05:50:57.319Z,41.32
2019-06-07T05:53:25.840Z,40.23
2019-06-07T05:55:54.513Z,39.60
2019-06-07T05:58:23.079Z,38.96
2019-06-07T06:00:51.698Z,37.49
2019-06-07T06:03:20.305Z,37.29
2019-06-07T06:05:54.838Z,36.87
2019-06-07T06:08:19.399Z,36.04
2019-06-07T06:10:48.986Z,35.33
2019-06-07T06:13:17.775Z,33.58
2019-06-07T06:16:00.479Z,34.75
2019-06-07T06:18:16.652Z,34.05
2019-06-07T06:21:09.660Z,33.74
2019-06-07T06:23:15.626Z,34.10
2019-06-07T06:25:52.439Z,33.57
2019-06-07T06:28:16.193Z,34.69
2019-06-07T06:30:47.962Z,34.55
2019-06-07T06:33:32.939Z,35.75
2019-06-07T06:35:50.487Z,37.60
2019-06-07T06:38:16.832Z,34.58
2019-06-07T06:40:48.940Z,35.65
2019-06-07T06:43:15.982Z,34.55
2019-06-07T06:45:49.773Z,33.94
2019-06-07T06:48:14.861Z,33.55
2019-06-07T06:50:44.447Z,33.41
2019-06-07T06:53:13.761Z,33.70
2019-06-07T06:55:43.939Z,33.64
2019-06-07T06:58:12.669Z,34.39
2019-06-07T07:01:06.050Z,35.21
2019-06-07T07:05:54.536Z,36.11
2019-06-07T07:08:22.895Z,34.85
2019-06-07T07:10:53.156Z,36.94
2019-06-07T07:13:21.855Z,36.85
2019-06-07T07:15:55.740Z,36.96
2019-06-07T07:18:20.827Z,35.86
2019-06-07T07:20:51.278Z,34.77
2019-06-07T07:23:19.703Z,35.38
2019-06-07T07:25:55.373Z,34.59
2019-06-07T07:28:18.487Z,37.33
2019-06-07T07:30:52.717Z,38.38
2019-06-07T07:33:19.946Z,38.27
2019-06-07T07:36:13.935Z,36.96
2019-06-07T07:38:19.046Z,36.78
2019-06-07T07:41:01.531Z,35.49
2019-06-07T07:43:17.958Z,36.11
2019-06-07T07:45:51.024Z,34.50
2019-06-07T07:48:18.559Z,34.65
2019-06-07T07:50:49.703Z,35.14
2019-06-07T07:53:17.442Z,35.16
2019-06-07T07:55:50.442Z,34.36
2019-06-07T07:58:16.240Z,35.17
2019-06-07T08:01:00.679Z,36.78
2019-06-07T08:03:15.027Z,35.30
2019-06-07T08:05:45.676Z,37.34
2019-06-07T08:08:13.834Z,35.82
2019-06-07T08:10:42.388Z,34.65
2019-06-07T08:13:27.601Z,35.69
2019-06-07T08:15:41.369Z,35.35
2019-06-07T08:18:10.021Z,34.45
2019-06-07T08:20:38.570Z,34.31
2019-06-07T08:23:07.170Z,33.24
2019-06-07T08:25:35.863Z,33.74
2019-06-07T08:28:04.539Z,33.85
2019-06-07T08:30:55.030Z,34.09
2019-06-07T08:33:24.585Z,35.02
2019-06-07T08:40:34.414Z,36.22
2019-06-07T08:43:18.191Z,33.91
2019-06-07T08:45:33.291Z,36.54
2019-06-07T08:48:09.463Z,35.18
2019-06-07T08:50:32.239Z,34.59
2019-06-07T08:53:11.057Z,32.18
2019-06-07T08:55:30.999Z,31.64
2019-06-07T08:58:04.568Z,30.36
2019-06-07T09:00:45.323Z,30.16
2019-06-07T09:03:06.470Z,30.82
2019-06-07T09:05:30.531Z,32.57
2019-06-07T09:08:21.680Z,34.08
2019-06-07T09:10:29.455Z,35.62
2019-06-07T09:13:03.160Z,36.14
2019-06-07T09:15:28.326Z,36.90
2019-06-07T09:18:34.764Z,37.74
2019-06-07T09:20:36.946Z,36.27
2019-06-07T09:23:11.437Z,37.26
2019-06-07T09:25:52.169Z,40.40
2019-06-07T09:28:13.469Z,39.10
2019-06-07T09:30:45.022Z,37.96
2019-06-07T09:33:14.019Z,38.53
2019-06-07T09:35:42.724Z,38.80
2019-06-07T09:38:24.109Z,38.12
2019-06-07T09:40:41.663Z,35.50
2019-06-07T09:45:40.565Z,35.91
2019-06-07T09:48:13.681Z,35.86
2019-06-07T09:50:39.674Z,33.81
2019-06-07T09:53:21.197Z,32.79
2019-06-07T09:55:38.687Z,31.93
2019-06-07T09:58:48.327Z,31.58
2019-06-07T10:00:41.484Z,30.67
2019-06-07T10:03:17.794Z,30.79
2019-06-07T10:05:38.382Z,30.75
2019-06-07T10:08:37.029Z,30.14
2019-06-07T10:10:37.303Z,31.28
2019-06-07T10:13:06.599Z,30.64
2019-06-07T10:15:36.305Z,31.52
2019-06-07T10:18:04.979Z,31.58
2019-06-07T10:20:33.533Z,32.45
2019-06-07T10:23:03.561Z,33.17
2019-06-07T10:25:32.373Z,33.20
2019-06-07T10:28:01.851Z,33.08
2019-06-07T10:30:30.477Z,32.26
2019-06-07T10:33:00.004Z,32.34
2019-06-07T10:35:29.197Z,33.69
2019-06-07T10:37:58.338Z,33.92
2019-06-07T10:40:26.935Z,33.62
2019-06-07T10:42:55.419Z,33.33
2019-06-07T10:45:23.922Z,35.04
2019-06-07T10:47:52.541Z,34.77
2019-06-07T10:50:21.569Z,34.98
2019-06-07T10:52:50.131Z,34.69
2019-06-07T10:55:18.860Z,34.10
2019-06-07T10:57:47.379Z,33.55
2019-06-07T11:00:16.500Z,32.96
2019-06-07T11:02:45.044Z,33.39
2019-06-07T11:05:14.431Z,33.06
2019-06-07T11:07:43.059Z,34.15
2019-06-07T11:10:18.848Z,33.66
2019-06-07T11:12:42.329Z,35.59
2019-06-07T11:15:12.829Z,34.21
2019-06-07T11:17:41.558Z,33.71
2019-06-07T11:20:12.306Z,34.54
2019-06-07T11:22:41.017Z,34.20
2019-06-07T11:25:11.167Z,33.12
2019-06-07T11:27:40.996Z,32.39
2019-06-07T11:30:10.536Z,31.97
2019-06-07T11:32:39.192Z,32.08
2019-06-07T11:35:11.671Z,32.90
2019-06-07T11:37:39.677Z,32.20
2019-06-07T11:40:27.928Z,32.01
2019-06-07T11:42:39.728Z,31.19
2019-06-07T11:45:10.503Z,30.86
2019-06-07T11:47:39.181Z,30.18
2019-06-07T11:50:09.442Z,30.40
2019-06-07T11:52:39.292Z,30.89
2019-06-07T11:55:09.019Z,30.97
2019-06-07T11:57:37.955Z,30.13
2019-06-07T12:00:11.437Z,29.41
2019-06-07T12:02:40.309Z,30.35
2019-06-07T12:05:12.641Z,29.93
2019-06-07T12:07:39.877Z,31.24
2019-06-07T12:10:10.642Z,31.83
2019-06-07T12:12:39.462Z,31.34
2019-06-07T12:15:08.918Z,30.35
2019-06-07T12:17:37.748Z,31.17
2019-06-07T12:20:08.782Z,30.78
2019-06-07T12:22:37.565Z,31.11
2019-06-07T12:25:07.510Z,30.93
2019-06-07T12:27:36.136Z,30.87
2019-06-07T12:30:15.441Z,31.59
2019-06-07T12:32:39.693Z,31.18
2019-06-07T12:35:08.630Z,32.50
2019-06-07T12:37:44.282Z,34.64
2019-06-07T12:40:10.106Z,32.79
2019-06-07T12:42:38.806Z,31.48
2019-06-07T12:45:08.142Z,31.30
2019-06-07T12:47:36.822Z,30.04
2019-06-07T12:50:08.979Z,29.42
2019-06-07T12:52:37.605Z,29.01
2019-06-07T12:55:07.818Z,28.07
2019-06-07T12:57:36.377Z,28.71
2019-06-07T13:00:10.089Z,29.67
2019-06-07T13:02:38.732Z,30.26
2019-06-07T13:05:08.159Z,28.89
2019-06-07T13:07:36.871Z,26.57
2019-06-07T13:10:10.317Z,26.39
2019-06-07T13:12:39.060Z,28.20
2019-06-07T13:15:08.412Z,27.37
2019-06-07T13:17:37.744Z,27.58
2019-06-07T13:20:08.381Z,28.39
2019-06-07T13:22:37.049Z,28.03
2019-06-07T13:25:07.969Z,28.28
2019-06-07T13:27:36.589Z,28.05
2019-06-07T13:30:10.719Z,28.30
2019-06-07T13:32:39.271Z,28.65
2019-06-07T13:35:08.511Z,28.92
2019-06-07T13:37:37.177Z,28.91
2019-06-07T13:40:06.928Z,28.96
2019-06-07T13:42:35.557Z,28.98
2019-06-07T13:45:06.065Z,30.68
2019-06-07T13:47:34.668Z,29.79
2019-06-07T13:50:04.569Z,30.45
2019-06-07T13:52:33.160Z,30.07
2019-06-07T13:55:02.510Z,29.71
2019-06-07T13:57:31.465Z,30.30
2019-06-07T14:00:00.140Z,30.55
2019-06-07T14:02:29.858Z,31.20
2019-06-07T14:04:58.402Z,30.46
2019-06-07T14:07:28.630Z,30.97
2019-06-07T14:09:57.547Z,31.75
2019-06-07T14:12:26.284Z,30.66
2019-06-07T14:14:55.145Z,30.86
2019-06-07T14:17:23.643Z,29.99
2019-06-07T14:19:52.199Z,29.59
2019-06-07T14:22:20.857Z,29.10
2019-06-07T14:24:49.487Z,28.78
2019-06-07T14:27:18.088Z,27.37
2019-06-07T14:29:47.468Z,27.90
2019-06-07T14:32:16.097Z,29.66
2019-06-07T14:34:44.662Z,28.73
2019-06-07T14:37:13.189Z,28.83
2019-06-07T14:39:41.734Z,27.02
2019-06-07T14:42:10.639Z,26.71
2019-06-07T14:44:39.297Z,27.86
2019-06-07T14:47:07.798Z,27.40
2019-06-07T14:49:36.399Z,27.56
2019-06-07T14:52:05.039Z,29.25
2019-06-07T14:54:37.013Z,29.37
2019-06-07T14:57:05.592Z,30.05
2019-06-07T14:59:34.880Z,30.14
2019-06-07T15:02:03.707Z,29.85
2019-06-07T15:04:32.885Z,29.20
2019-06-07T15:07:01.542Z,29.50
2019-06-07T15:09:31.024Z,29.74
2019-06-07T15:11:59.700Z,29.78
2019-06-07T15:14:29.328Z,29.73
2019-06-07T15:16:57.959Z,29.86
2019-06-07T15:19:26.796Z,30.08
2019-06-07T15:21:55.366Z,29.65
2019-06-07T15:24:23.992Z,29.95
2019-06-07T15:26:52.655Z,30.33
2019-06-07T15:29:21.277Z,30.56
2019-06-07T15:31:49.846Z,31.58
2019-06-07T15:34:18.490Z,31.74
2019-06-07T15:36:47.117Z,32.27
2019-06-07T15:39:15.748Z,32.67
2019-06-07T15:41:44.410Z,33.57
2019-06-07T15:44:13.043Z,34.39
2019-06-07T15:46:41.697Z,34.71
2019-06-07T15:49:10.315Z,35.46
2019-06-07T15:51:38.972Z,35.54
2019-06-07T15:54:07.993Z,35.33
2019-06-07T15:56:37.023Z,35.36
2019-06-07T15:59:05.637Z,35.77
2019-06-07T16:01:35.535Z,36.58
2019-06-07T16:04:05.056Z,38.91
2019-06-07T16:06:34.247Z,38.52
2019-06-07T16:09:02.923Z,40.01
2019-06-07T16:11:32.726Z,40.25
2019-06-07T16:14:01.514Z,40.62
2019-06-07T16:16:30.005Z,41.34
2019-06-07T16:18:58.897Z,42.01
2019-06-07T16:21:27.563Z,41.98
2019-06-07T16:23:56.189Z,42.29
2019-06-07T16:26:24.798Z,42.40
2019-06-07T16:28:53.434Z,42.63
2019-06-07T16:31:21.971Z,43.08
2019-06-07T16:33:50.529Z,43.07
2019-06-07T16:36:19.148Z,43.64
2019-06-07T16:38:48.643Z,43.93
2019-06-07T16:41:17.417Z,44.08
2019-06-07T16:43:45.911Z,44.22
2019-06-07T16:46:14.536Z,44.12
2019-06-07T16:48:43.198Z,44.29
2019-06-07T16:51:11.839Z,45.07
2019-06-07T16:53:40.480Z,44.85
2019-06-07T16:56:09.135Z,44.62
2019-06-07T16:58:37.917Z,44.67
2019-06-07T17:01:06.612Z,44.80
2019-06-07T17:03:35.251Z,44.44
2019-06-07T17:06:03.915Z,44.44
2019-06-07T17:08:32.546Z,44.83
2019-06-07T17:11:01.257Z,45.27
2019-06-07T17:13:33.594Z,45.27
2019-06-07T17:16:00.205Z,45.41
2019-06-07T17:18:28.878Z,45.41
2019-06-07T17:20:57.441Z,45.37
2019-06-07T17:23:26.026Z,45.69
2019-06-07T17:25:54.674Z,45.55
2019-06-07T17:28:23.306Z,45.49
2019-06-07T17:30:51.802Z,46.24
2019-06-07T17:33:20.397Z,45.88
2019-06-07T17:35:50.456Z,46.34
2019-06-07T17:38:19.126Z,46.72
2019-06-07T17:40:49.043Z,47.05
2019-06-07T17:43:17.820Z,47.25
2019-06-07T17:45:47.512Z,49.26
2019-06-07T17:48:16.168Z,49.26
2019-06-07T17:50:45.889Z,50.05
2019-06-07T17:53:14.503Z,50.92
2019-06-07T17:55:44.097Z,51.35
2019-06-07T17:58:12.736Z,52.32
2019-06-07T18:00:53.308Z,53.14
2019-06-07T18:03:21.892Z,53.46
2019-06-07T18:05:51.384Z,54.32
2019-06-07T18:08:20.071Z,54.62
2019-06-07T18:10:50.063Z,55.41
2019-06-07T18:13:18.726Z,57.34
2019-06-07T18:15:52.930Z,57.45
2019-06-07T18:18:18.664Z,58.22
2019-06-07T18:20:47.457Z,58.32
2019-06-07T18:23:16.162Z,58.03
2019-06-07T18:25:44.796Z,58.17
2019-06-07T18:28:13.549Z,58.20
2019-06-07T18:30:42.258Z,58.14
2019-06-07T18:33:10.808Z,58.25
2019-06-07T18:35:39.427Z,58.97
2019-06-07T18:38:10.777Z,58.35
2019-06-07T18:40:38.562Z,59.09
2019-06-07T18:43:07.120Z,60.15
2019-06-07T18:45:35.785Z,61.43
2019-06-07T18:48:04.725Z,63.99
2019-06-07T18:50:33.365Z,64.91
2019-06-07T18:53:01.911Z,66.43
2019-06-07T18:55:30.526Z,67.36
2019-06-07T18:57:59.091Z,67.94
2019-06-07T19:00:28.540Z,67.77
2019-06-07T19:02:58.152Z,68.82
2019-06-07T19:05:27.496Z,69.54
2019-06-07T19:07:56.732Z,69.31
2019-06-07T19:10:25.437Z,68.92
2019-06-07T19:12:55.268Z,69.40
2019-06-07T19:15:24.657Z,70.12
2019-06-07T19:17:54.070Z,70.83
2019-06-07T19:20:24.118Z,70.34
2019-06-07T19:22:54.143Z,70.32
2019-06-07T19:25:22.836Z,69.94
2019-06-07T19:27:52.742Z,69.72
2019-06-07T19:30:21.817Z,70.02
2019-06-07T19:32:51.435Z,70.02
2019-06-07T19:35:20.162Z,70.22
2019-06-07T19:37:48.828Z,71.30
2019-06-07T19:40:18.570Z,70.53
2019-06-07T19:42:47.125Z,71.04
2019-06-07T19:45:29.850Z,70.54
2019-06-07T19:47:46.381Z,70.16
2019-06-07T19:50:16.102Z,69.95
2019-06-07T19:52:44.626Z,68.84
2019-06-07T19:55:14.583Z,68.92
2019-06-07T19:57:43.193Z,68.58
2019-06-07T20:00:14.291Z,69.11
2019-06-07T20:02:42.523Z,69.57
2019-06-07T20:05:14.051Z,69.74
2019-06-07T20:07:42.720Z,70.13
2019-06-07T20:10:12.157Z,70.32
2019-06-07T20:12:40.790Z,70.40
2019-06-07T20:15:27.708Z,70.86
2019-06-07T20:17:40.947Z,71.20
2019-06-07T20:20:10.286Z,71.25
2019-06-07T20:22:38.953Z,71.97
2019-06-07T20:25:09.304Z,72.31
2019-06-07T20:27:38.001Z,72.61
2019-06-07T20:30:08.672Z,72.64
2019-06-07T20:32:37.243Z,73.51
2019-06-07T20:35:08.237Z,74.08
2019-06-07T20:37:37.117Z,74.27
2019-06-07T20:40:22.918Z,74.19
2019-06-07T20:45:08.214Z,74.71
2019-06-07T20:47:36.746Z,74.75
2019-06-07T20:50:09.046Z,74.35
2019-06-07T20:52:37.745Z,74.51
2019-06-07T20:55:09.738Z,75.70
2019-06-07T20:57:38.474Z,77.03
2019-06-07T21:00:16.703Z,77.84
2019-06-07T21:02:39.721Z,78.08
2019-06-07T21:05:09.922Z,78.68
2019-06-07T21:07:38.826Z,78.48
2019-06-07T21:10:10.856Z,78.99
2019-06-07T21:12:39.542Z,79.69
2019-06-07T21:15:11.757Z,81.63
2019-06-07T21:17:39.122Z,81.87
2019-06-07T21:20:11.864Z,82.71
2019-06-07T21:22:38.811Z,82.68
2019-06-07T21:25:11.519Z,83.27
2019-06-07T21:27:40.358Z,83.33
2019-06-07T21:30:09.821Z,83.53
2019-06-07T21:32:38.509Z,82.66
2019-06-07T21:35:10.002Z,81.96
2019-06-07T21:37:38.925Z,81.89
2019-06-07T21:40:10.333Z,82.46
2019-06-07T21:42:39.157Z,82.81
2019-06-07T21:45:09.624Z,83.38
2019-06-07T21:47:38.382Z,84.10
2019-06-07T21:50:10.591Z,83.76
2019-06-07T21:52:39.379Z,84.76
2019-06-07T21:55:09.210Z,84.94
2019-06-07T21:57:38.316Z,85.79
2019-06-07T22:00:11.656Z,86.64
2019-06-07T22:02:40.343Z,87.48
2019-06-07T22:05:09.612Z,87.97
2019-06-07T22:07:38.425Z,88.57
2019-06-07T22:10:08.034Z,88.33
2019-06-07T22:12:36.808Z,89.31
2019-06-07T22:15:24.594Z,89.24
2019-06-07T22:17:38.783Z,89.92
2019-06-07T22:20:09.055Z,89.70
2019-06-07T22:22:37.637Z,89.61
2019-06-07T22:25:07.516Z,89.58
2019-06-07T22:27:36.140Z,89.42
2019-06-07T22:30:08.276Z,89.60
2019-06-07T22:32:37.361Z,90.55
2019-06-07T22:35:06.918Z,91.28
2019-06-07T22:37:35.542Z,91.76
2019-06-07T22:40:08.527Z,92.22
2019-06-07T22:42:37.519Z,92.79
2019-06-07T22:45:07.955Z,94.00
2019-06-07T22:47:36.839Z,94.25
2019-06-07T22:50:10.683Z,94.58
2019-06-07T22:52:39.576Z,94.91
2019-06-07T22:55:10.176Z,95.54
2019-06-07T22:57:58.330Z,96.08
2019-06-07T23:00:28.794Z,96.16
2019-06-07T23:02:57.450Z,96.93
2019-06-07T23:05:26.137Z,97.13
2019-06-07T23:07:54.696Z,97.43
2019-06-07T23:10:23.346Z,97.58
2019-06-07T23:12:51.875Z,97.60
2019-06-07T23:15:20.967Z,98.43
2019-06-07T23:17:49.614Z,98.11
2019-06-07T23:20:20.016Z,97.88
2019-06-07T23:22:48.665Z,98.16
2019-06-07T23:25:21.884Z,98.57
2019-06-07T23:27:47.749Z,99.25
2019-06-07T23:30:16.998Z,99.85
2019-06-07T23:32:45.657Z,99.21
2019-06-07T23:35:14.829Z,99.51
2019-06-07T23:37:43.576Z,100.00
2019-06-07T23:40:14.897Z,98.84
2019-06-07T23:42:43.892Z,93.17
2019-06-07T23:45:13.806Z,91.98
2019-06-07T23:47:42.415Z,91.75
2019-06-07T23:50:11.573Z,95.49
2019-06-07T23:52:40.268Z,97.84
2019-06-07T23:55:09.018Z,98.26
2019-06-07T23:57:37.624Z,98.87
